Avon, Mississippi
Current Conditions -  °F | °C
As of 11:53 AM on Friday 31 Oct 2014 (Local Time) from KGLH Reporting Station
Clear Clear  
Wind Chill: 64°   Ceiling: Unl
Heat Index: 64°   Visibility: 10mi
Dew Point: 48°   Wind: 20mph
Humidity: 56%   Direction: 360°N
Pressure: 30.12"   Gusts: NA
Location:  33.23°N, 91.05°W
Report Text: KGLH 311653Z AUTO 36017KT 10SM CLR 18/09 A3012 RMK AO2 SLP207 T01780089
Loading
Personal Weather Stations






























Interactive Weather Map
Tropical Storm Tracking
New forecast layout! Learn more

10-Day Weather Forecast

Advertisements
Track Severe Weather on mobile